sensor_id;sensor_type;location;lat;lon;timestamp;temperature;humidity
8067;DHT22;4076;48.076;9.118;2024-01-15T00:01:53;-5.10;99.90
8067;DHT22;4076;48.076;9.118;2024-01-15T00:04:19;-5.10;99.90
8067;DHT22;4076;48.076;9.118;2024-01-15T00:06:44;-5.10;99.90
8067;DHT22;4076;48.076;9.118;2024-01-15T00:09:10;-5.10;99.90
8067;DHT22;4076;48.076;9.118;2024-01-15T00:11:35;-5.10;99.90
8067;DHT22;4076;48.076;9.118;2024-01-15T00:14:01;-5.10;99.90
8067;DHT22;4076;48.076;9.118;2024-01-15T00:16:26;-5.10;99.90
8067;DHT22;4076;48.076;9.118;2024-01-15T00:18:52;-5.10;99.90
8067;DHT22;4076;48.076;9.118;2024-01-15T00:21:17;-5.10;99.90
8067;DHT22;4076;48.076;9.118;2024-01-15T00:23:43;-5.10;99.90
8067;DHT22;4076;48.076;9.118;2024-01-15T00:26:12;-5.00;99.90
8067;DHT22;4076;48.076;9.118;2024-01-15T00:28:38;-5.00;99.90
8067;DHT22;4076;48.076;9.118;2024-01-15T00:31:07;-5.00;99.90
8067;DHT22;4076;48.076;9.118;2024-01-15T00:33:32;-4.90;99.90
8067;DHT22;4076;48.076;9.118;2024-01-15T00:35:58;-4.90;99.90
8067;DHT22;4076;48.076;9.118;2024-01-15T00:38:24;-4.90;99.90
8067;DHT22;4076;48.076;9.118;2024-01-15T00:40:50;-4.90;99.90
8067;DHT22;4076;48.076;9.118;2024-01-15T00:43:15;-4.90;99.90
8067;DHT22;4076;48.076;9.118;2024-01-15T00:45:43;-4.90;99.90
8067;DHT22;4076;48.076;9.118;2024-01-15T00:48:09;-4.90;99.90
8067;DHT22;4076;48.076;9.118;2024-01-15T00:50:34;-4.90;99.90
8067;DHT22;4076;48.076;9.118;2024-01-15T00:53:00;-4.90;99.90
8067;DHT22;4076;48.076;9.118;2024-01-15T00:55:26;-4.90;99.90
8067;DHT22;4076;48.076;9.118;2024-01-15T00:57:52;-4.90;99.90
8067;DHT22;4076;48.076;9.118;2024-01-15T01:00:17;-5.00;99.90
8067;DHT22;4076;48.076;9.118;2024-01-15T01:02:43;-5.00;99.90
8067;DHT22;4076;48.076;9.118;2024-01-15T01:05:08;-5.00;99.90
8067;DHT22;4076;48.076;9.118;2024-01-15T01:07:34;-5.10;99.90
8067;DHT22;4076;48.076;9.118;2024-01-15T01:10:00;-5.10;99.90
8067;DHT22;4076;48.076;9.118;2024-01-15T01:12:25;-5.20;99.90
8067;DHT22;4076;48.076;9.118;2024-01-15T01:14:51;-5.20;99.90
8067;DHT22;4076;48.076;9.118;2024-01-15T01:17:16;-5.20;99.90
8067;DHT22;4076;48.076;9.118;2024-01-15T01:19:42;-5.30;99.90
8067;DHT22;4076;48.076;9.118;2024-01-15T01:22:07;-5.30;99.90
8067;DHT22;4076;48.076;9.118;2024-01-15T01:24:33;-5.40;99.90
8067;DHT22;4076;48.076;9.118;2024-01-15T01:26:58;-5.40;99.90
8067;DHT22;4076;48.076;9.118;2024-01-15T01:29:24;-5.50;99.90
8067;DHT22;4076;48.076;9.118;2024-01-15T01:31:51;-5.50;99.90
8067;DHT22;4076;48.076;9.118;2024-01-15T01:34:17;-5.50;99.90
8067;DHT22;4076;48.076;9.118;2024-01-15T01:36:43;-5.60;99.90
8067;DHT22;4076;48.076;9.118;2024-01-15T01:39:09;-5.50;99.90
8067;DHT22;4076;48.076;9.118;2024-01-15T01:41:35;-5.50;99.90
8067;DHT22;4076;48.076;9.118;2024-01-15T01:44:00;-5.60;99.90
8067;DHT22;4076;48.076;9.118;2024-01-15T01:46:27;-5.70;99.90
8067;DHT22;4076;48.076;9.118;2024-01-15T01:48:54;-5.80;99.90
8067;DHT22;4076;48.076;9.118;2024-01-15T01:51:22;-5.90;99.90
8067;DHT22;4076;48.076;9.118;2024-01-15T01:53:48;-5.90;99.90
8067;DHT22;4076;48.076;9.118;2024-01-15T01:56:14;-5.90;99.90
8067;DHT22;4076;48.076;9.118;2024-01-15T01:58:40;-5.90;99.90
8067;DHT22;4076;48.076;9.118;2024-01-15T02:01:06;-6.00;99.90
8067;DHT22;4076;48.076;9.118;2024-01-15T02:03:32;-6.00;99.90
8067;DHT22;4076;48.076;9.118;2024-01-15T02:05:59;-6.00;99.90
8067;DHT22;4076;48.076;9.118;2024-01-15T02:08:25;-6.00;99.90
8067;DHT22;4076;48.076;9.118;2024-01-15T02:10:51;-6.00;99.90
8067;DHT22;4076;48.076;9.118;2024-01-15T02:13:18;-5.90;99.90
8067;DHT22;4076;48.076;9.118;2024-01-15T02:15:43;-5.80;99.90
8067;DHT22;4076;48.076;9.118;2024-01-15T02:18:09;-5.80;99.90
8067;DHT22;4076;48.076;9.118;2024-01-15T02:20:35;-5.70;99.90
8067;DHT22;4076;48.076;9.118;2024-01-15T02:23:14;-5.70;99.90
8067;DHT22;4076;48.076;9.118;2024-01-15T02:25:41;-5.60;99.90
8067;DHT22;4076;48.076;9.118;2024-01-15T02:28:10;-5.60;99.90
8067;DHT22;4076;48.076;9.118;2024-01-15T02:30:38;-5.50;99.90
8067;DHT22;4076;48.076;9.118;2024-01-15T02:33:05;-5.40;99.90
8067;DHT22;4076;48.076;9.118;2024-01-15T02:35:30;-5.30;99.90
8067;DHT22;4076;48.076;9.118;2024-01-15T02:37:56;-5.20;99.90
8067;DHT22;4076;48.076;9.118;2024-01-15T02:40:22;-5.10;99.90
8067;DHT22;4076;48.076;9.118;2024-01-15T02:42:47;-5.00;99.90
8067;DHT22;4076;48.076;9.118;2024-01-15T02:45:13;-5.00;99.90
8067;DHT22;4076;48.076;9.118;2024-01-15T02:47:38;-4.90;99.90
8067;DHT22;4076;48.076;9.118;2024-01-15T02:50:04;-4.90;99.90
8067;DHT22;4076;48.076;9.118;2024-01-15T02:52:30;-4.90;99.90
8067;DHT22;4076;48.076;9.118;2024-01-15T02:54:56;-4.90;99.90
8067;DHT22;4076;48.076;9.118;2024-01-15T02:57:21;-4.80;99.90
8067;DHT22;4076;48.076;9.118;2024-01-15T02:59:47;-4.70;99.90
8067;DHT22;4076;48.076;9.118;2024-01-15T03:02:12;-4.70;99.90
8067;DHT22;4076;48.076;9.118;2024-01-15T03:04:42;-4.60;99.90
8067;DHT22;4076;48.076;9.118;2024-01-15T03:07:08;-4.50;99.90
8067;DHT22;4076;48.076;9.118;2024-01-15T03:09:33;-4.50;99.90
8067;DHT22;4076;48.076;9.118;2024-01-15T03:11:59;-4.50;99.90
8067;DHT22;4076;48.076;9.118;2024-01-15T03:14:24;-4.50;99.90
8067;DHT22;4076;48.076;9.118;2024-01-15T03:16:51;-4.40;99.90
8067;DHT22;4076;48.076;9.118;2024-01-15T03:19:17;-4.30;99.90
8067;DHT22;4076;48.076;9.118;2024-01-15T03:21:43;-4.30;99.90
8067;DHT22;4076;48.076;9.118;2024-01-15T03:24:08;-4.30;99.90
8067;DHT22;4076;48.076;9.118;2024-01-15T03:26:34;-4.30;99.90
8067;DHT22;4076;48.076;9.118;2024-01-15T03:28:59;-4.30;99.90
8067;DHT22;4076;48.076;9.118;2024-01-15T03:31:25;-4.20;99.90
8067;DHT22;4076;48.076;9.118;2024-01-15T03:33:50;-4.20;99.90
8067;DHT22;4076;48.076;9.118;2024-01-15T03:36:16;-4.20;99.90
8067;DHT22;4076;48.076;9.118;2024-01-15T03:38:41;-4.10;99.90
8067;DHT22;4076;48.076;9.118;2024-01-15T03:41:07;-4.10;99.90
8067;DHT22;4076;48.076;9.118;2024-01-15T03:43:33;-4.20;99.90
8067;DHT22;4076;48.076;9.118;2024-01-15T03:45:59;-4.10;99.90
8067;DHT22;4076;48.076;9.118;2024-01-15T03:48:24;-4.10;99.90
8067;DHT22;4076;48.076;9.118;2024-01-15T03:50:50;-4.20;99.90
8067;DHT22;4076;48.076;9.118;2024-01-15T03:53:15;-4.20;99.90
8067;DHT22;4076;48.076;9.118;2024-01-15T03:55:42;-4.10;99.90
8067;DHT22;4076;48.076;9.118;2024-01-15T03:58:07;-4.10;99.90
8067;DHT22;4076;48.076;9.118;2024-01-15T04:00:33;-4.00;99.90
8067;DHT22;4076;48.076;9.118;2024-01-15T04:02:59;-4.00;99.90
8067;DHT22;4076;48.076;9.118;2024-01-15T04:05:24;-4.00;99.90
8067;DHT22;4076;48.076;9.118;2024-01-15T04:07:50;-4.00;99.90
8067;DHT22;4076;48.076;9.118;2024-01-15T04:10:15;-3.90;99.90
8067;DHT22;4076;48.076;9.118;2024-01-15T04:12:41;-3.90;99.90
8067;DHT22;4076;48.076;9.118;2024-01-15T04:15:07;-3.80;99.90
8067;DHT22;4076;48.076;9.118;2024-01-15T04:17:32;-3.80;99.90
8067;DHT22;4076;48.076;9.118;2024-01-15T04:19:59;-3.80;99.90
8067;DHT22;4076;48.076;9.118;2024-01-15T04:22:25;-3.80;99.90
8067;DHT22;4076;48.076;9.118;2024-01-15T04:24:50;-3.80;99.90
8067;DHT22;4076;48.076;9.118;2024-01-15T04:27:16;-3.80;99.90
8067;DHT22;4076;48.076;9.118;2024-01-15T04:29:42;-3.70;99.90
8067;DHT22;4076;48.076;9.118;2024-01-15T04:32:09;-3.80;99.90
8067;DHT22;4076;48.076;9.118;2024-01-15T04:34:35;-3.70;99.90
8067;DHT22;4076;48.076;9.118;2024-01-15T04:37:00;-3.70;99.90
8067;DHT22;4076;48.076;9.118;2024-01-15T04:39:26;-3.70;99.90
8067;DHT22;4076;48.076;9.118;2024-01-15T04:41:52;-3.70;99.90
8067;DHT22;4076;48.076;9.118;2024-01-15T04:44:18;-3.70;99.90
8067;DHT22;4076;48.076;9.118;2024-01-15T04:46:43;-3.60;99.90
8067;DHT22;4076;48.076;9.118;2024-01-15T04:49:09;-3.60;99.90
8067;DHT22;4076;48.076;9.118;2024-01-15T04:51:35;-3.60;99.90
8067;DHT22;4076;48.076;9.118;2024-01-15T04:54:01;-3.60;99.90
8067;DHT22;4076;48.076;9.118;2024-01-15T04:56:26;-3.50;99.90
8067;DHT22;4076;48.076;9.118;2024-01-15T04:58:52;-3.50;99.90
8067;DHT22;4076;48.076;9.118;2024-01-15T05:01:17;-3.50;99.90
8067;DHT22;4076;48.076;9.118;2024-01-15T05:03:43;-3.50;99.90
8067;DHT22;4076;48.076;9.118;2024-01-15T05:06:09;-3.50;99.90
8067;DHT22;4076;48.076;9.118;2024-01-15T05:08:34;-3.50;99.90
8067;DHT22;4076;48.076;9.118;2024-01-15T05:11:00;-3.50;99.90
8067;DHT22;4076;48.076;9.118;2024-01-15T05:13:25;-3.50;99.90
8067;DHT22;4076;48.076;9.118;2024-01-15T05:15:51;-3.50;99.90
8067;DHT22;4076;48.076;9.118;2024-01-15T05:18:17;-3.50;99.90
8067;DHT22;4076;48.076;9.118;2024-01-15T05:20:42;-3.50;99.90
8067;DHT22;4076;48.076;9.118;2024-01-15T05:23:08;-3.50;99.90
8067;DHT22;4076;48.076;9.118;2024-01-15T05:25:33;-3.40;99.90
8067;DHT22;4076;48.076;9.118;2024-01-15T05:27:59;-3.40;99.90
8067;DHT22;4076;48.076;9.118;2024-01-15T05:30:25;-3.40;99.90
8067;DHT22;4076;48.076;9.118;2024-01-15T05:32:50;-3.30;99.90
8067;DHT22;4076;48.076;9.118;2024-01-15T05:35:16;-3.30;99.90
8067;DHT22;4076;48.076;9.118;2024-01-15T05:37:43;-3.20;99.90
8067;DHT22;4076;48.076;9.118;2024-01-15T05:40:11;-3.10;99.90
8067;DHT22;4076;48.076;9.118;2024-01-15T05:42:36;-3.10;99.90
8067;DHT22;4076;48.076;9.118;2024-01-15T05:45:02;-3.00;99.90
8067;DHT22;4076;48.076;9.118;2024-01-15T05:47:30;-2.90;99.90
8067;DHT22;4076;48.076;9.118;2024-01-15T05:49:56;-2.90;99.90
8067;DHT22;4076;48.076;9.118;2024-01-15T05:52:22;-2.90;99.90
8067;DHT22;4076;48.076;9.118;2024-01-15T05:54:48;-2.80;99.90
8067;DHT22;4076;48.076;9.118;2024-01-15T05:57:14;-2.80;99.90
8067;DHT22;4076;48.076;9.118;2024-01-15T05:59:40;-2.80;99.90
8067;DHT22;4076;48.076;9.118;2024-01-15T06:02:05;-2.80;99.90
8067;DHT22;4076;48.076;9.118;2024-01-15T06:04:31;-2.80;99.90
8067;DHT22;4076;48.076;9.118;2024-01-15T06:06:56;-2.80;99.90
8067;DHT22;4076;48.076;9.118;2024-01-15T06:09:22;-2.80;99.90
8067;DHT22;4076;48.076;9.118;2024-01-15T06:11:48;-2.80;99.90
8067;DHT22;4076;48.076;9.118;2024-01-15T06:14:14;-2.80;99.90
8067;DHT22;4076;48.076;9.118;2024-01-15T06:16:40;-2.80;99.90
8067;DHT22;4076;48.076;9.118;2024-01-15T06:19:05;-2.70;99.90
8067;DHT22;4076;48.076;9.118;2024-01-15T06:21:31;-2.70;99.90
8067;DHT22;4076;48.076;9.118;2024-01-15T06:23:56;-2.70;99.90
8067;DHT22;4076;48.076;9.118;2024-01-15T06:26:22;-2.70;99.90
8067;DHT22;4076;48.076;9.118;2024-01-15T06:28:48;-2.60;99.90
8067;DHT22;4076;48.076;9.118;2024-01-15T06:31:14;-2.50;99.90
8067;DHT22;4076;48.076;9.118;2024-01-15T06:33:39;-2.50;99.90
8067;DHT22;4076;48.076;9.118;2024-01-15T06:36:05;-2.40;99.90
8067;DHT22;4076;48.076;9.118;2024-01-15T06:38:31;-2.40;99.90
8067;DHT22;4076;48.076;9.118;2024-01-15T06:40:57;-2.30;99.90
8067;DHT22;4076;48.076;9.118;2024-01-15T06:43:22;-2.30;99.90
8067;DHT22;4076;48.076;9.118;2024-01-15T06:45:48;-2.20;99.90
8067;DHT22;4076;48.076;9.118;2024-01-15T06:48:14;-2.20;99.90
8067;DHT22;4076;48.076;9.118;2024-01-15T06:50:42;-2.10;99.90
8067;DHT22;4076;48.076;9.118;2024-01-15T06:53:07;-2.10;99.90
8067;DHT22;4076;48.076;9.118;2024-01-15T06:55:33;-2.00;99.90
8067;DHT22;4076;48.076;9.118;2024-01-15T06:57:59;-2.00;99.90
8067;DHT22;4076;48.076;9.118;2024-01-15T07:00:25;-1.90;99.90
8067;DHT22;4076;48.076;9.118;2024-01-15T07:02:50;-1.90;99.90
8067;DHT22;4076;48.076;9.118;2024-01-15T07:05:17;-1.90;99.90
8067;DHT22;4076;48.076;9.118;2024-01-15T07:07:42;-1.80;99.90
8067;DHT22;4076;48.076;9.118;2024-01-15T07:10:08;-1.80;99.90
8067;DHT22;4076;48.076;9.118;2024-01-15T07:12:34;-1.80;99.90
8067;DHT22;4076;48.076;9.118;2024-01-15T07:15:00;-1.70;99.90
8067;DHT22;4076;48.076;9.118;2024-01-15T07:17:27;-1.70;99.90
8067;DHT22;4076;48.076;9.118;2024-01-15T07:19:52;-1.70;99.90
8067;DHT22;4076;48.076;9.118;2024-01-15T07:22:18;-1.70;99.90
8067;DHT22;4076;48.076;9.118;2024-01-15T07:24:43;-1.70;99.90
8067;DHT22;4076;48.076;9.118;2024-01-15T07:27:09;-1.60;99.90
8067;DHT22;4076;48.076;9.118;2024-01-15T07:29:35;-1.60;99.90
8067;DHT22;4076;48.076;9.118;2024-01-15T07:32:04;-1.60;99.90
8067;DHT22;4076;48.076;9.118;2024-01-15T07:34:30;-1.60;99.90
8067;DHT22;4076;48.076;9.118;2024-01-15T07:36:57;-1.60;99.90
8067;DHT22;4076;48.076;9.118;2024-01-15T07:39:23;-1.50;99.90
8067;DHT22;4076;48.076;9.118;2024-01-15T07:41:50;-1.50;99.90
8067;DHT22;4076;48.076;9.118;2024-01-15T07:44:15;-1.50;99.90
8067;DHT22;4076;48.076;9.118;2024-01-15T07:46:44;-1.50;99.90
8067;DHT22;4076;48.076;9.118;2024-01-15T07:49:11;-1.50;99.90
8067;DHT22;4076;48.076;9.118;2024-01-15T07:51:37;-1.40;99.90
8067;DHT22;4076;48.076;9.118;2024-01-15T07:54:02;-1.40;99.90
8067;DHT22;4076;48.076;9.118;2024-01-15T07:56:28;-1.30;99.90
8067;DHT22;4076;48.076;9.118;2024-01-15T07:58:54;-1.30;99.90
8067;DHT22;4076;48.076;9.118;2024-01-15T08:01:20;-1.20;99.90
8067;DHT22;4076;48.076;9.118;2024-01-15T08:03:46;-1.20;99.90
8067;DHT22;4076;48.076;9.118;2024-01-15T08:06:11;-1.10;99.90
8067;DHT22;4076;48.076;9.118;2024-01-15T08:08:37;-1.10;99.90
8067;DHT22;4076;48.076;9.118;2024-01-15T08:11:03;-1.10;99.90
8067;DHT22;4076;48.076;9.118;2024-01-15T08:13:28;-1.00;99.90
8067;DHT22;4076;48.076;9.118;2024-01-15T08:15:54;-1.00;99.90
8067;DHT22;4076;48.076;9.118;2024-01-15T08:18:19;-0.90;99.90
8067;DHT22;4076;48.076;9.118;2024-01-15T08:20:47;-0.90;99.90
8067;DHT22;4076;48.076;9.118;2024-01-15T08:23:12;-0.80;99.90
8067;DHT22;4076;48.076;9.118;2024-01-15T08:25:38;-0.70;99.90
8067;DHT22;4076;48.076;9.118;2024-01-15T08:28:04;-0.60;99.90
8067;DHT22;4076;48.076;9.118;2024-01-15T08:30:29;-0.50;99.90
8067;DHT22;4076;48.076;9.118;2024-01-15T08:32:55;-0.50;99.90
8067;DHT22;4076;48.076;9.118;2024-01-15T08:35:21;-0.40;99.90
8067;DHT22;4076;48.076;9.118;2024-01-15T08:37:54;-0.30;99.90
8067;DHT22;4076;48.076;9.118;2024-01-15T08:40:20;-0.20;99.90
8067;DHT22;4076;48.076;9.118;2024-01-15T08:42:45;0.00;99.90
8067;DHT22;4076;48.076;9.118;2024-01-15T08:45:11;0.20;99.90
8067;DHT22;4076;48.076;9.118;2024-01-15T08:47:37;0.40;99.90
8067;DHT22;4076;48.076;9.118;2024-01-15T08:50:03;0.90;99.90
8067;DHT22;4076;48.076;9.118;2024-01-15T08:52:29;2.20;99.90
8067;DHT22;4076;48.076;9.118;2024-01-15T08:54:58;3.30;99.90
8067;DHT22;4076;48.076;9.118;2024-01-15T08:57:23;4.40;99.90
8067;DHT22;4076;48.076;9.118;2024-01-15T08:59:49;5.00;99.90
8067;DHT22;4076;48.076;9.118;2024-01-15T09:02:15;4.90;99.90
8067;DHT22;4076;48.076;9.118;2024-01-15T09:04:41;4.80;99.90
8067;DHT22;4076;48.076;9.118;2024-01-15T09:07:07;4.80;99.90
8067;DHT22;4076;48.076;9.118;2024-01-15T09:09:33;5.10;97.20
8067;DHT22;4076;48.076;9.118;2024-01-15T09:11:59;5.90;97.70
8067;DHT22;4076;48.076;9.118;2024-01-15T09:14:25;6.90;85.90
8067;DHT22;4076;48.076;9.118;2024-01-15T09:16:52;7.60;87.40
8067;DHT22;4076;48.076;9.118;2024-01-15T09:19:18;7.60;72.40
8067;DHT22;4076;48.076;9.118;2024-01-15T09:21:44;7.20;70.80
8067;DHT22;4076;48.076;9.118;2024-01-15T09:24:10;6.70;65.20
8067;DHT22;4076;48.076;9.118;2024-01-15T09:26:35;6.20;68.20
8067;DHT22;4076;48.076;9.118;2024-01-15T09:29:01;5.90;67.20
8067;DHT22;4076;48.076;9.118;2024-01-15T09:31:26;5.70;68.80
8067;DHT22;4076;48.076;9.118;2024-01-15T09:33:52;5.40;69.20
8067;DHT22;4076;48.076;9.118;2024-01-15T09:36:21;5.00;64.00
8067;DHT22;4076;48.076;9.118;2024-01-15T09:38:48;4.60;64.80
8067;DHT22;4076;48.076;9.118;2024-01-15T09:41:14;4.20;64.70
8067;DHT22;4076;48.076;9.118;2024-01-15T09:43:40;3.80;64.30
8067;DHT22;4076;48.076;9.118;2024-01-15T09:46:06;3.40;63.20
8067;DHT22;4076;48.076;9.118;2024-01-15T09:48:32;3.10;63.90
8067;DHT22;4076;48.076;9.118;2024-01-15T09:51:01;2.80;63.70
8067;DHT22;4076;48.076;9.118;2024-01-15T09:53:27;2.60;63.40
8067;DHT22;4076;48.076;9.118;2024-01-15T09:55:53;2.50;64.00
8067;DHT22;4076;48.076;9.118;2024-01-15T09:58:19;2.40;65.00
8067;DHT22;4076;48.076;9.118;2024-01-15T10:00:45;2.50;65.20
8067;DHT22;4076;48.076;9.118;2024-01-15T10:03:13;2.80;66.60
8067;DHT22;4076;48.076;9.118;2024-01-15T10:05:39;3.10;65.30
8067;DHT22;4076;48.076;9.118;2024-01-15T10:08:05;3.40;65.80
8067;DHT22;4076;48.076;9.118;2024-01-15T10:10:31;3.70;64.50
8067;DHT22;4076;48.076;9.118;2024-01-15T10:12:58;3.70;63.40
8067;DHT22;4076;48.076;9.118;2024-01-15T10:15:28;3.60;62.60
8067;DHT22;4076;48.076;9.118;2024-01-15T10:17:54;3.60;63.40
8067;DHT22;4076;48.076;9.118;2024-01-15T10:20:20;3.50;63.10
8067;DHT22;4076;48.076;9.118;2024-01-15T10:22:47;3.50;62.50
8067;DHT22;4076;48.076;9.118;2024-01-15T10:25:14;3.40;62.50
8067;DHT22;4076;48.076;9.118;2024-01-15T10:27:43;3.50;62.70
8067;DHT22;4076;48.076;9.118;2024-01-15T10:30:09;3.60;63.00
8067;DHT22;4076;48.076;9.118;2024-01-15T10:32:35;3.80;63.30
8067;DHT22;4076;48.076;9.118;2024-01-15T10:35:01;3.90;61.90
8067;DHT22;4076;48.076;9.118;2024-01-15T10:37:26;4.00;61.90
8067;DHT22;4076;48.076;9.118;2024-01-15T10:39:52;4.10;61.80
8067;DHT22;4076;48.076;9.118;2024-01-15T10:42:18;4.20;61.90
8067;DHT22;4076;48.076;9.118;2024-01-15T10:44:44;4.30;61.20
8067;DHT22;4076;48.076;9.118;2024-01-15T10:47:12;4.40;61.20
8067;DHT22;4076;48.076;9.118;2024-01-15T10:49:38;4.40;60.70
8067;DHT22;4076;48.076;9.118;2024-01-15T10:52:04;4.40;60.50
8067;DHT22;4076;48.076;9.118;2024-01-15T10:54:30;4.40;60.10
8067;DHT22;4076;48.076;9.118;2024-01-15T10:56:56;4.30;59.70
8067;DHT22;4076;48.076;9.118;2024-01-15T10:59:22;4.20;59.60
8067;DHT22;4076;48.076;9.118;2024-01-15T11:01:51;4.20;59.70
8067;DHT22;4076;48.076;9.118;2024-01-15T11:04:21;4.20;59.70
8067;DHT22;4076;48.076;9.118;2024-01-15T11:06:50;4.20;59.60
8067;DHT22;4076;48.076;9.118;2024-01-15T11:09:16;4.10;59.50
8067;DHT22;4076;48.076;9.118;2024-01-15T11:11:45;4.00;58.90
8067;DHT22;4076;48.076;9.118;2024-01-15T11:14:35;4.00;59.00
8067;DHT22;4076;48.076;9.118;2024-01-15T11:17:03;3.80;58.90
8067;DHT22;4076;48.076;9.118;2024-01-15T11:22:10;3.70;59.20
8067;DHT22;4076;48.076;9.118;2024-01-15T11:24:41;3.70;59.20
8067;DHT22;4076;48.076;9.118;2024-01-15T11:27:08;3.60;59.30
8067;DHT22;4076;48.076;9.118;2024-01-15T11:29:35;3.60;59.50
8067;DHT22;4076;48.076;9.118;2024-01-15T11:32:02;3.70;59.80
8067;DHT22;4076;48.076;9.118;2024-01-15T11:37:17;3.70;59.80
8067;DHT22;4076;48.076;9.118;2024-01-15T11:39:43;3.60;59.70
8067;DHT22;4076;48.076;9.118;2024-01-15T11:42:13;3.50;59.70
8067;DHT22;4076;48.076;9.118;2024-01-15T11:44:40;3.50;59.70
8067;DHT22;4076;48.076;9.118;2024-01-15T11:47:07;3.40;59.80
8067;DHT22;4076;48.076;9.118;2024-01-15T11:52:20;3.40;59.50
8067;DHT22;4076;48.076;9.118;2024-01-15T12:00:06;3.40;59.60
8067;DHT22;4076;48.076;9.118;2024-01-15T12:02:32;3.50;59.40
8067;DHT22;4076;48.076;9.118;2024-01-15T12:04:58;3.50;59.40
8067;DHT22;4076;48.076;9.118;2024-01-15T12:07:23;3.50;59.50
8067;DHT22;4076;48.076;9.118;2024-01-15T12:09:49;3.50;59.30
8067;DHT22;4076;48.076;9.118;2024-01-15T12:12:24;3.60;59.20
8067;DHT22;4076;48.076;9.118;2024-01-15T12:14:50;3.50;58.80
8067;DHT22;4076;48.076;9.118;2024-01-15T12:17:16;3.50;58.90
8067;DHT22;4076;48.076;9.118;2024-01-15T12:19:43;3.40;58.60
8067;DHT22;4076;48.076;9.118;2024-01-15T12:22:08;3.40;58.40
8067;DHT22;4076;48.076;9.118;2024-01-15T12:24:35;3.30;58.60
8067;DHT22;4076;48.076;9.118;2024-01-15T12:27:01;3.20;59.20
8067;DHT22;4076;48.076;9.118;2024-01-15T12:29:27;3.00;58.70
8067;DHT22;4076;48.076;9.118;2024-01-15T12:31:53;2.90;58.50
8067;DHT22;4076;48.076;9.118;2024-01-15T12:34:19;2.80;58.60
8067;DHT22;4076;48.076;9.118;2024-01-15T12:36:46;2.70;59.10
8067;DHT22;4076;48.076;9.118;2024-01-15T12:39:12;2.60;59.30
8067;DHT22;4076;48.076;9.118;2024-01-15T12:41:38;2.50;59.70
8067;DHT22;4076;48.076;9.118;2024-01-15T12:44:04;2.40;59.60
8067;DHT22;4076;48.076;9.118;2024-01-15T12:46:30;2.40;59.40
8067;DHT22;4076;48.076;9.118;2024-01-15T12:48:57;2.30;60.00
8067;DHT22;4076;48.076;9.118;2024-01-15T12:51:26;2.30;60.10
8067;DHT22;4076;48.076;9.118;2024-01-15T12:53:53;2.30;62.70
8067;DHT22;4076;48.076;9.118;2024-01-15T12:56:18;2.30;61.80
8067;DHT22;4076;48.076;9.118;2024-01-15T12:58:44;2.40;61.80
8067;DHT22;4076;48.076;9.118;2024-01-15T13:01:10;2.40;61.70
8067;DHT22;4076;48.076;9.118;2024-01-15T13:03:35;2.50;61.70
8067;DHT22;4076;48.076;9.118;2024-01-15T13:06:01;2.60;61.70
8067;DHT22;4076;48.076;9.118;2024-01-15T13:08:26;2.60;61.70
8067;DHT22;4076;48.076;9.118;2024-01-15T13:10:55;2.70;61.70
8067;DHT22;4076;48.076;9.118;2024-01-15T13:13:22;2.70;61.90
8067;DHT22;4076;48.076;9.118;2024-01-15T13:15:48;2.60;61.40
8067;DHT22;4076;48.076;9.118;2024-01-15T13:18:14;2.60;61.50
8067;DHT22;4076;48.076;9.118;2024-01-15T13:20:39;2.50;61.60
8067;DHT22;4076;48.076;9.118;2024-01-15T13:23:05;2.50;61.70
8067;DHT22;4076;48.076;9.118;2024-01-15T13:25:31;2.50;61.60
8067;DHT22;4076;48.076;9.118;2024-01-15T13:27:57;2.50;61.70
8067;DHT22;4076;48.076;9.118;2024-01-15T13:30:23;2.50;62.10
8067;DHT22;4076;48.076;9.118;2024-01-15T13:32:48;2.50;62.30
8067;DHT22;4076;48.076;9.118;2024-01-15T13:35:14;2.50;63.70
8067;DHT22;4076;48.076;9.118;2024-01-15T13:37:40;2.50;63.70
8067;DHT22;4076;48.076;9.118;2024-01-15T13:40:07;2.50;64.10
8067;DHT22;4076;48.076;9.118;2024-01-15T13:42:35;2.50;63.50
8067;DHT22;4076;48.076;9.118;2024-01-15T13:45:04;2.50;63.60
8067;DHT22;4076;48.076;9.118;2024-01-15T13:47:31;2.40;63.80
8067;DHT22;4076;48.076;9.118;2024-01-15T13:49:57;2.40;64.70
8067;DHT22;4076;48.076;9.118;2024-01-15T13:52:23;2.40;65.10
8067;DHT22;4076;48.076;9.118;2024-01-15T13:54:49;2.40;66.30
8067;DHT22;4076;48.076;9.118;2024-01-15T13:57:15;2.30;65.90
8067;DHT22;4076;48.076;9.118;2024-01-15T13:59:40;2.30;64.90
8067;DHT22;4076;48.076;9.118;2024-01-15T14:02:06;2.20;67.00
8067;DHT22;4076;48.076;9.118;2024-01-15T14:04:31;2.20;66.80
8067;DHT22;4076;48.076;9.118;2024-01-15T14:06:57;2.10;66.90
8067;DHT22;4076;48.076;9.118;2024-01-15T14:09:23;2.10;67.10
8067;DHT22;4076;48.076;9.118;2024-01-15T14:11:49;2.10;67.90
8067;DHT22;4076;48.076;9.118;2024-01-15T14:14:15;2.00;68.40
8067;DHT22;4076;48.076;9.118;2024-01-15T14:16:42;2.00;67.30
8067;DHT22;4076;48.076;9.118;2024-01-15T14:19:08;2.00;67.90
8067;DHT22;4076;48.076;9.118;2024-01-15T14:21:35;1.90;69.30
8067;DHT22;4076;48.076;9.118;2024-01-15T14:24:01;1.90;70.60
8067;DHT22;4076;48.076;9.118;2024-01-15T14:26:26;1.90;70.20
8067;DHT22;4076;48.076;9.118;2024-01-15T14:28:53;1.90;70.10
8067;DHT22;4076;48.076;9.118;2024-01-15T14:31:19;1.80;72.00
8067;DHT22;4076;48.076;9.118;2024-01-15T14:33:45;1.70;72.00
8067;DHT22;4076;48.076;9.118;2024-01-15T14:36:11;1.70;71.70
8067;DHT22;4076;48.076;9.118;2024-01-15T14:38:36;1.60;73.40
8067;DHT22;4076;48.076;9.118;2024-01-15T14:41:02;1.60;72.60
8067;DHT22;4076;48.076;9.118;2024-01-15T14:43:28;1.60;71.90
8067;DHT22;4076;48.076;9.118;2024-01-15T14:45:53;1.70;72.30
8067;DHT22;4076;48.076;9.118;2024-01-15T14:48:19;1.70;71.70
8067;DHT22;4076;48.076;9.118;2024-01-15T14:50:44;1.70;72.30
8067;DHT22;4076;48.076;9.118;2024-01-15T14:53:10;1.70;71.60
8067;DHT22;4076;48.076;9.118;2024-01-15T14:55:35;1.60;72.20
8067;DHT22;4076;48.076;9.118;2024-01-15T14:58:01;1.60;72.10
8067;DHT22;4076;48.076;9.118;2024-01-15T15:00:27;1.60;71.60
8067;DHT22;4076;48.076;9.118;2024-01-15T15:02:53;1.60;72.40
8067;DHT22;4076;48.076;9.118;2024-01-15T15:05:19;1.60;72.50
8067;DHT22;4076;48.076;9.118;2024-01-15T15:07:45;1.50;72.90
8067;DHT22;4076;48.076;9.118;2024-01-15T15:10:11;1.50;72.80
8067;DHT22;4076;48.076;9.118;2024-01-15T15:12:36;1.50;72.80
8067;DHT22;4076;48.076;9.118;2024-01-15T15:15:03;1.50;73.30
8067;DHT22;4076;48.076;9.118;2024-01-15T15:17:29;1.40;73.50
8067;DHT22;4076;48.076;9.118;2024-01-15T15:19:54;1.40;73.10
8067;DHT22;4076;48.076;9.118;2024-01-15T15:22:20;1.30;73.60
8067;DHT22;4076;48.076;9.118;2024-01-15T15:24:46;1.30;73.20
8067;DHT22;4076;48.076;9.118;2024-01-15T15:27:12;1.30;73.80
8067;DHT22;4076;48.076;9.118;2024-01-15T15:29:37;1.30;74.00
8067;DHT22;4076;48.076;9.118;2024-01-15T15:32:03;1.20;74.90
8067;DHT22;4076;48.076;9.118;2024-01-15T15:34:28;1.20;75.10
8067;DHT22;4076;48.076;9.118;2024-01-15T15:36:54;1.10;75.80
8067;DHT22;4076;48.076;9.118;2024-01-15T15:39:20;1.10;75.40
8067;DHT22;4076;48.076;9.118;2024-01-15T15:41:45;1.10;75.00
8067;DHT22;4076;48.076;9.118;2024-01-15T15:44:11;1.00;75.60
8067;DHT22;4076;48.076;9.118;2024-01-15T15:46:38;1.00;76.40
8067;DHT22;4076;48.076;9.118;2024-01-15T15:49:04;1.00;76.90
8067;DHT22;4076;48.076;9.118;2024-01-15T15:51:35;1.00;77.00
8067;DHT22;4076;48.076;9.118;2024-01-15T15:54:01;1.00;77.00
8067;DHT22;4076;48.076;9.118;2024-01-15T15:56:26;0.90;77.20
8067;DHT22;4076;48.076;9.118;2024-01-15T15:58:52;0.90;77.00
8067;DHT22;4076;48.076;9.118;2024-01-15T16:01:18;0.90;77.20
8067;DHT22;4076;48.076;9.118;2024-01-15T16:03:44;0.90;77.20
8067;DHT22;4076;48.076;9.118;2024-01-15T16:06:09;0.80;76.90
8067;DHT22;4076;48.076;9.118;2024-01-15T16:08:35;0.80;76.50
8067;DHT22;4076;48.076;9.118;2024-01-15T16:11:00;0.80;76.30
8067;DHT22;4076;48.076;9.118;2024-01-15T16:13:26;0.80;76.10
8067;DHT22;4076;48.076;9.118;2024-01-15T16:15:51;0.70;76.20